Time;durP1;ratioP1;P1;durP2;ratioP2;P2;SDS_P1;SDS_P2;PMS_P1;PMS_P2;Temp;Humidity;BMP_temperature;BMP_pressure;BME280_temperature;BME280_humidity;BME280_pressure;Samples;Min_cycle;Max_cycle;Signal;HPM_P1;HPM_P2
2021/12/10 00:01:43;;;;;;;18.77;11.10;;;3.60;99.90;;;;;;5118473;28;20364;-68
2021/12/10 00:04:11;;;;;;;20.92;11.25;;;3.70;99.90;;;;;;5117029;28;20028;-68
2021/12/10 00:06:41;;;;;;;17.02;10.35;;;3.70;99.90;;;;;;5099980;28;20095;-68
2021/12/10 00:09:13;;;;;;;17.58;10.48;;;3.80;99.90;;;;;;5118305;28;20073;-68
2021/12/10 00:11:46;;;;;;;18.00;10.15;;;3.80;99.90;;;;;;5118308;28;20012;-68
2021/12/10 00:14:12;;;;;;;19.33;10.45;;;3.80;99.90;;;;;;5117954;28;20053;-68
2021/12/10 00:16:40;;;;;;;22.27;10.38;;;3.80;99.90;;;;;;5099286;28;20438;-68
2021/12/10 00:19:24;;;;;;;15.85;10.45;;;3.80;99.90;;;;;;5117011;28;20016;-68
2021/12/10 00:21:52;;;;;;;20.27;10.70;;;3.70;99.90;;;;;;5118115;27;20020;-68
2021/12/10 00:24:20;;;;;;;16.17;10.52;;;3.70;99.90;;;;;;5116151;28;20487;-68
2021/12/10 00:26:46;;;;;;;18.05;10.25;;;3.60;99.90;;;;;;5099757;28;20024;-68
2021/12/10 00:29:12;;;;;;;19.08;10.13;;;3.50;99.90;;;;;;5117998;28;20364;-68
2021/12/10 00:31:48;;;;;;;17.08;10.40;;;3.40;99.90;;;;;;5099564;28;20012;-68
2021/12/10 00:34:36;;;;;;;21.40;10.43;;;3.30;99.90;;;;;;5116763;28;20023;-68
2021/12/10 00:37:06;;;;;;;16.60;10.23;;;3.20;99.90;;;;;;5116058;28;20055;-68
2021/12/10 00:39:37;;;;;;;22.10;11.07;;;3.10;99.90;;;;;;5100093;28;20387;-68
2021/12/10 00:42:06;;;;;;;22.60;12.35;;;3.00;99.90;;;;;;5116051;28;20039;-69
2021/12/10 00:44:32;;;;;;;20.45;11.90;;;3.00;99.90;;;;;;5116298;28;20020;-69
2021/12/10 00:46:58;;;;;;;25.02;12.48;;;2.90;99.90;;;;;;5099218;28;20024;-69
2021/12/10 00:49:23;;;;;;;25.05;13.23;;;2.80;99.90;;;;;;5116986;28;20027;-70
2021/12/10 00:51:50;;;;;;;20.75;11.88;;;2.80;99.90;;;;;;5098718;28;20084;-69
2021/12/10 00:54:15;;;;;;;20.92;12.38;;;2.70;99.90;;;;;;5116177;28;20110;-69
2021/12/10 00:56:42;;;;;;;20.58;10.93;;;2.70;99.90;;;;;;5115895;28;20506;-69
2021/12/10 00:59:10;;;;;;;18.50;11.05;;;2.70;99.90;;;;;;5117390;28;20012;-69
2021/12/10 01:01:37;;;;;;;25.50;11.63;;;2.60;99.90;;;;;;5115537;28;20473;-69
2021/12/10 01:04:12;;;;;;;21.33;12.25;;;2.60;99.90;;;;;;5115507;28;20019;-69
2021/12/10 01:06:40;;;;;;;23.10;11.90;;;2.50;99.90;;;;;;5117273;28;20529;-69
2021/12/10 01:09:17;;;;;;;16.80;10.82;;;2.50;99.90;;;;;;5114950;28;20111;-69
2021/12/10 01:11:50;;;;;;;23.23;11.38;;;2.30;99.90;;;;;;5081909;28;20023;-69
2021/12/10 01:14:25;;;;;;;21.83;11.85;;;2.20;99.90;;;;;;5116579;28;20111;-68
2021/12/10 01:28:02;;;;;;;20.55;10.38;;;2.00;99.90;;;;;;5115090;28;20552;-69
2021/12/10 01:30:32;;;;;;;22.98;11.70;;;1.80;99.90;;;;;;5097964;28;20028;-69
2021/12/10 01:33:02;;;;;;;22.65;11.98;;;1.80;99.90;;;;;;5116490;28;20023;-68
2021/12/10 01:35:33;;;;;;;19.35;11.15;;;1.90;99.90;;;;;;5097948;28;20028;-68
2021/12/10 01:38:00;;;;;;;21.45;11.60;;;1.80;99.90;;;;;;5098115;28;20042;-68
2021/12/10 01:40:27;;;;;;;23.80;12.00;;;1.80;99.90;;;;;;5114791;28;20023;-68
2021/12/10 01:43:01;;;;;;;25.30;13.23;;;1.80;99.90;;;;;;5098241;28;20053;-68
2021/12/10 01:45:32;;;;;;;23.98;12.95;;;1.80;99.90;;;;;;5115987;27;20026;-68
2021/12/10 01:48:05;;;;;;;24.05;13.90;;;1.80;99.90;;;;;;5116512;28;20015;-68
2021/12/10 01:50:31;;;;;;;29.08;13.45;;;1.70;99.90;;;;;;5116428;28;20023;-68
2021/12/10 01:52:59;;;;;;;25.10;14.35;;;1.60;99.90;;;;;;5116364;28;20456;-69
2021/12/10 01:55:27;;;;;;;28.23;13.23;;;1.60;99.90;;;;;;5114841;28;20449;-68
2021/12/10 01:57:55;;;;;;;24.60;12.98;;;1.50;99.90;;;;;;5097519;28;20024;-68
2021/12/10 02:00:24;;;;;;;27.70;15.18;;;1.40;99.90;;;;;;5114736;28;20035;-68
2021/12/10 02:02:49;;;;;;;27.00;15.13;;;1.40;99.90;;;;;;5097876;28;20086;-68
2021/12/10 02:05:16;;;;;;;31.25;15.02;;;1.40;99.90;;;;;;5097205;28;20031;-68
2021/12/10 02:07:41;;;;;;;27.75;14.60;;;1.40;99.90;;;;;;5097735;28;20081;-68
2021/12/10 02:10:09;;;;;;;30.85;15.35;;;1.40;99.90;;;;;;5116003;28;20028;-68
2021/12/10 02:12:35;;;;;;;29.35;15.82;;;1.30;99.90;;;;;;5114227;28;20063;-68
2021/12/10 02:15:03;;;;;;;35.20;16.23;;;1.30;99.90;;;;;;5115935;28;20023;-68
2021/12/10 02:17:35;;;;;;;28.23;15.52;;;1.30;99.90;;;;;;5080799;28;20446;-68
2021/12/10 02:20:06;;;;;;;31.33;15.52;;;1.30;99.90;;;;;;5114649;28;20562;-68
2021/12/10 02:22:31;;;;;;;30.15;15.55;;;1.30;99.90;;;;;;5079638;28;20107;-68
2021/12/10 02:24:57;;;;;;;28.92;15.27;;;1.40;99.90;;;;;;5114257;28;20095;-68
2021/12/10 02:27:23;;;;;;;29.83;15.23;;;1.40;99.90;;;;;;5115380;28;20211;-68
2021/12/10 02:29:48;;;;;;;30.17;15.85;;;1.40;99.90;;;;;;5114152;28;20027;-68
2021/12/10 02:32:14;;;;;;;28.67;15.48;;;1.40;99.90;;;;;;5096829;28;20020;-68
2021/12/10 02:34:41;;;;;;;30.38;15.80;;;1.40;99.90;;;;;;5115562;28;20023;-68
2021/12/10 02:37:07;;;;;;;27.65;16.10;;;1.40;99.90;;;;;;5114197;28;20460;-68
2021/12/10 02:39:33;;;;;;;29.17;15.82;;;1.40;99.90;;;;;;5114902;28;20051;-68
2021/12/10 02:41:59;;;;;;;29.42;14.57;;;1.40;99.90;;;;;;5113975;28;20384;-68
2021/12/10 02:44:28;;;;;;;28.65;15.00;;;1.40;99.90;;;;;;5113903;28;20023;-68
2021/12/10 02:46:55;;;;;;;34.03;16.35;;;1.40;99.90;;;;;;5115029;28;20016;-68
2021/12/10 02:49:21;;;;;;;30.70;16.00;;;1.40;99.90;;;;;;5096541;28;20031;-68
2021/12/10 02:51:47;;;;;;;31.05;15.88;;;1.50;99.90;;;;;;5114934;28;20095;-68
2021/12/10 02:54:20;;;;;;;32.53;15.38;;;1.50;99.90;;;;;;5114206;28;20118;-68
2021/12/10 02:56:46;;;;;;;29.02;14.90;;;1.60;99.90;;;;;;5097587;28;20027;-68
2021/12/10 02:59:12;;;;;;;26.55;14.43;;;1.60;99.90;;;;;;5096386;28;20023;-68
2021/12/10 03:01:43;;;;;;;27.48;14.70;;;1.60;99.90;;;;;;5113266;28;20019;-68
2021/12/10 03:04:09;;;;;;;31.75;16.17;;;1.60;99.90;;;;;;5113187;28;20051;-68
2021/12/10 03:06:42;;;;;;;28.83;14.20;;;1.60;99.90;;;;;;5114966;28;20405;-68
2021/12/10 03:09:08;;;;;;;28.02;14.57;;;1.60;99.90;;;;;;5113510;28;20073;-68
2021/12/10 03:11:36;;;;;;;29.67;14.48;;;1.60;99.90;;;;;;5114879;28;20024;-68
2021/12/10 03:14:09;;;;;;;28.30;14.68;;;1.50;99.90;;;;;;5114323;28;20162;-68
2021/12/10 03:16:36;;;;;;;25.63;13.90;;;1.50;99.90;;;;;;5113055;28;20193;-68
2021/12/10 03:19:02;;;;;;;28.40;14.05;;;1.50;99.90;;;;;;5114387;28;20292;-68
2021/12/10 03:21:28;;;;;;;26.70;14.93;;;1.40;99.90;;;;;;5113016;28;20358;-68
2021/12/10 03:23:53;;;;;;;27.80;14.63;;;1.40;99.90;;;;;;5114444;28;20082;-68
2021/12/10 03:26:21;;;;;;;29.33;14.77;;;1.30;99.90;;;;;;5095960;28;20020;-68
2021/12/10 03:28:49;;;;;;;29.65;15.60;;;1.40;99.90;;;;;;5113539;28;20051;-68
2021/12/10 03:31:16;;;;;;;27.00;15.20;;;1.40;99.90;;;;;;5114643;28;20026;-68
2021/12/10 03:33:42;;;;;;;27.38;14.60;;;1.40;99.90;;;;;;5112585;28;20038;-68
2021/12/10 03:36:09;;;;;;;30.90;15.48;;;1.50;99.90;;;;;;5114580;28;20460;-68
2021/12/10 03:38:38;;;;;;;33.42;15.63;;;1.50;99.90;;;;;;5113758;28;20399;-68
2021/12/10 03:41:04;;;;;;;25.58;14.10;;;1.50;99.90;;;;;;5114554;28;20107;-68
2021/12/10 03:43:30;;;;;;;30.77;15.05;;;1.50;99.90;;;;;;5095740;28;20059;-68
2021/12/10 03:45:57;;;;;;;28.17;14.43;;;1.60;99.90;;;;;;5114488;28;20510;-68
2021/12/10 03:48:29;;;;;;;27.67;14.20;;;1.50;99.90;;;;;;5078923;28;20039;-68
2021/12/10 03:50:56;;;;;;;24.48;13.45;;;1.60;99.90;;;;;;5112627;28;20027;-68
2021/12/10 03:53:22;;;;;;;22.17;13.43;;;1.60;99.90;;;;;;5112654;28;20054;-68
2021/12/10 03:55:48;;;;;;;23.83;14.02;;;1.60;99.90;;;;;;5112672;28;20027;-69
2021/12/10 03:58:14;;;;;;;27.88;15.20;;;1.60;99.90;;;;;;5095724;28;20064;-69
2021/12/10 04:00:46;;;;;;;28.65;15.65;;;1.60;99.90;;;;;;5112874;28;20023;-69
2021/12/10 04:03:13;;;;;;;29.58;15.45;;;1.70;99.90;;;;;;5114330;28;20020;-68
2021/12/10 04:05:40;;;;;;;29.80;15.73;;;1.60;99.90;;;;;;5112587;28;20411;-69
2021/12/10 04:08:06;;;;;;;27.33;15.55;;;1.70;99.90;;;;;;5114258;28;20476;-69
2021/12/10 04:10:32;;;;;;;30.38;15.77;;;1.80;99.90;;;;;;5114264;28;20031;-69
2021/12/10 04:12:58;;;;;;;32.80;14.90;;;1.70;99.90;;;;;;5114221;28;20529;-68
2021/12/10 04:15:24;;;;;;;27.27;14.70;;;1.70;99.90;;;;;;5113629;28;20027;-69
2021/12/10 04:17:52;;;;;;;27.23;14.70;;;1.60;99.90;;;;;;5095421;28;20027;-69
2021/12/10 04:20:20;;;;;;;30.75;15.18;;;1.60;99.90;;;;;;5114387;28;20490;-68
2021/12/10 04:22:47;;;;;;;32.30;16.27;;;1.60;99.90;;;;;;5112722;28;20031;-68
2021/12/10 04:25:16;;;;;;;29.83;15.73;;;1.70;99.90;;;;;;5095445;28;20020;-66
2021/12/10 04:27:48;;;;;;;31.23;15.45;;;1.60;99.90;;;;;;5095702;28;20402;-69
2021/12/10 04:30:15;;;;;;;29.75;15.13;;;1.60;99.90;;;;;;5113807;28;20042;-69
2021/12/10 04:32:43;;;;;;;30.27;15.68;;;1.60;99.90;;;;;;5095808;28;20028;-68
2021/12/10 04:35:09;;;;;;;33.35;16.38;;;1.60;99.90;;;;;;5095473;28;20031;-68
2021/12/10 04:37:35;;;;;;;31.45;14.82;;;1.50;99.90;;;;;;5112313;28;20131;-69
2021/12/10 04:40:05;;;;;;;27.75;15.02;;;1.50;99.90;;;;;;5113989;28;20019;-68
2021/12/10 04:42:31;;;;;;;25.05;14.52;;;1.40;99.90;;;;;;5112203;28;20072;-68
2021/12/10 04:44:58;;;;;;;33.28;14.43;;;1.40;99.90;;;;;;5114570;28;20118;-68
2021/12/10 04:47:26;;;;;;;31.17;13.65;;;1.40;99.90;;;;;;5117658;28;20030;-68
2021/12/10 04:49:52;;;;;;;26.77;14.43;;;1.40;99.90;;;;;;5116148;28;20027;-69
2021/12/10 04:52:18;;;;;;;31.20;13.82;;;1.50;99.90;;;;;;5117228;28;20034;-68
2021/12/10 04:54:44;;;;;;;28.55;14.73;;;1.50;99.90;;;;;;5116081;28;20024;-68
2021/12/10 04:57:10;;;;;;;26.30;13.52;;;1.50;99.90;;;;;;5117377;28;20069;-68
2021/12/10 04:59:37;;;;;;;26.52;12.93;;;1.50;99.90;;;;;;5115599;28;20022;-68
2021/12/10 05:02:06;;;;;;;28.45;13.45;;;1.50;99.90;;;;;;5117402;28;20413;-68
2021/12/10 05:04:32;;;;;;;24.58;12.07;;;1.50;99.90;;;;;;5115530;28;20053;-68
2021/12/10 05:06:59;;;;;;;28.23;12.38;;;1.50;99.90;;;;;;5098717;28;20024;-68
2021/12/10 05:09:26;;;;;;;29.73;12.13;;;1.50;99.90;;;;;;5115459;28;20092;-68
2021/12/10 05:11:52;;;;;;;19.58;10.65;;;1.40;99.90;;;;;;5117214;28;20042;-68
2021/12/10 05:14:19;;;;;;;22.27;11.18;;;1.50;99.90;;;;;;5098848;28;20075;-68
2021/12/10 05:16:47;;;;;;;18.98;11.07;;;1.40;99.90;;;;;;5115184;28;20027;-68
2021/12/10 05:19:16;;;;;;;23.73;10.90;;;1.40;99.90;;;;;;5098496;28;20031;-68
2021/12/10 05:21:45;;;;;;;22.75;11.07;;;1.30;99.90;;;;;;5115562;28;20141;-68
2021/12/10 05:24:11;;;;;;;27.83;10.60;;;1.30;99.90;;;;;;5116660;28;20152;-68
2021/12/10 05:26:38;;;;;;;19.27;10.48;;;1.30;99.90;;;;;;5116926;28;20045;-68
2021/12/10 05:29:05;;;;;;;24.58;10.43;;;1.30;99.90;;;;;;5099027;28;20449;-68
2021/12/10 05:31:31;;;;;;;18.50;10.02;;;1.30;99.90;;;;;;5115669;28;20030;-68
2021/12/10 05:33:57;;;;;;;15.23;8.65;;;1.30;99.90;;;;;;5114875;28;20027;-68
2021/12/10 05:36:23;;;;;;;21.20;8.40;;;1.20;99.90;;;;;;5115496;28;20077;-68
2021/12/10 05:38:49;;;;;;;22.40;9.02;;;1.20;99.90;;;;;;5097723;28;20400;-68
2021/12/10 05:41:15;;;;;;;20.02;8.82;;;1.30;99.90;;;;;;5098173;28;20015;-68
2021/12/10 05:43:42;;;;;;;15.05;8.00;;;1.30;99.90;;;;;;5116590;28;20518;-68
2021/12/10 05:46:09;;;;;;;14.60;8.23;;;1.30;99.90;;;;;;5097883;28;20024;-69
2021/12/10 05:48:35;;;;;;;20.00;7.75;;;1.30;99.90;;;;;;5098397;28;20358;-69
2021/12/10 05:51:01;;;;;;;22.35;8.60;;;1.20;99.90;;;;;;5114951;28;20030;-68
2021/12/10 05:53:27;;;;;;;18.83;7.93;;;1.20;99.90;;;;;;5115822;28;20379;-68
2021/12/10 05:55:52;;;;;;;16.55;7.82;;;1.20;99.90;;;;;;5116026;28;20058;-68
2021/12/10 05:58:19;;;;;;;13.07;7.38;;;1.10;99.90;;;;;;5081109;28;20027;-68
2021/12/10 06:00:50;;;;;;;21.27;7.55;;;1.10;99.90;;;;;;5097400;28;20024;-68
2021/12/10 06:03:17;;;;;;;15.88;7.88;;;1.10;99.90;;;;;;5097337;28;20545;-68
2021/12/10 06:05:45;;;;;;;17.88;7.53;;;1.20;99.90;;;;;;5115113;28;20065;-68
2021/12/10 06:08:11;;;;;;;16.17;7.10;;;1.20;99.90;;;;;;5097600;28;20065;-68
2021/12/10 06:10:39;;;;;;;13.95;6.88;;;1.20;99.90;;;;;;5116024;28;20072;-68
2021/12/10 06:13:05;;;;;;;14.52;7.32;;;1.40;99.90;;;;;;5115972;27;20468;-68
2021/12/10 06:15:31;;;;;;;22.40;7.55;;;1.60;99.90;;;;;;5114131;28;20024;-68
2021/12/10 06:17:57;;;;;;;12.45;6.63;;;1.70;99.90;;;;;;5115757;28;20031;-68
2021/12/10 06:20:28;;;;;;;13.73;6.68;;;1.80;99.90;;;;;;5114097;28;20027;-68
2021/12/10 06:22:55;;;;;;;19.02;8.65;;;2.00;99.90;;;;;;5114612;28;20020;-68
2021/12/10 06:25:21;;;;;;;16.17;7.32;;;2.10;99.90;;;;;;5113901;28;20019;-68
2021/12/10 06:27:47;;;;;;;15.00;6.57;;;2.20;99.90;;;;;;5097448;28;20353;-68
2021/12/10 06:30:16;;;;;;;8.50;4.35;;;2.20;99.90;;;;;;5097728;28;20061;-68
2021/12/10 06:32:43;;;;;;;9.48;4.50;;;2.20;99.90;;;;;;5113773;28;20031;-68
2021/12/10 06:35:11;;;;;;;9.45;4.00;;;2.30;99.90;;;;;;5115289;28;20080;-68
2021/12/10 06:37:38;;;;;;;15.82;6.18;;;2.40;99.90;;;;;;5113639;28;20557;-68
2021/12/10 06:40:08;;;;;;;12.95;3.88;;;2.50;99.90;;;;;;5096889;28;20032;-68
2021/12/10 06:42:34;;;;;;;7.47;4.25;;;2.40;99.90;;;;;;5115384;28;20024;-68
2021/12/10 06:45:00;;;;;;;9.10;4.50;;;2.40;99.90;;;;;;5113925;28;20035;-68
2021/12/10 06:47:26;;;;;;;11.40;3.90;;;2.30;99.90;;;;;;5114424;28;20026;-68
2021/12/10 06:49:51;;;;;;;10.35;4.38;;;2.20;99.90;;;;;;5114967;28;20028;-68
2021/12/10 06:52:17;;;;;;;10.52;4.65;;;2.10;99.90;;;;;;5115157;28;20094;-68
2021/12/10 06:54:43;;;;;;;11.40;4.50;;;2.10;99.90;;;;;;5114886;28;20047;-68
2021/12/10 06:57:09;;;;;;;16.30;5.30;;;2.10;99.90;;;;;;5096415;28;20027;-69
2021/12/10 06:59:34;;;;;;;10.40;4.80;;;2.00;99.90;;;;;;5113190;28;20024;-69
2021/12/10 07:02:00;;;;;;;9.65;4.72;;;2.00;99.90;;;;;;5113139;28;20103;-68
2021/12/10 07:04:25;;;;;;;9.63;4.90;;;2.00;99.90;;;;;;5113109;28;20019;-68
2021/12/10 07:06:53;;;;;;;12.43;5.40;;;1.90;99.90;;;;;;5096038;28;20028;-69
2021/12/10 07:09:24;;;;;;;11.98;5.43;;;1.90;99.90;;;;;;5096391;28;20035;-69
2021/12/10 07:11:52;;;;;;;11.90;6.00;;;1.90;99.90;;;;;;5079399;28;20019;-68
2021/12/10 07:14:18;;;;;;;12.50;5.82;;;1.90;99.90;;;;;;5112969;28;20030;-69
2021/12/10 07:16:44;;;;;;;13.20;5.78;;;1.80;99.90;;;;;;5114718;28;20039;-69
2021/12/10 07:19:10;;;;;;;9.98;6.07;;;1.80;99.90;;;;;;5112819;28;20023;-69
2021/12/10 07:21:36;;;;;;;16.67;7.18;;;1.80;99.90;;;;;;5096003;28;20156;-69
2021/12/10 07:24:06;;;;;;;11.52;6.47;;;1.80;99.90;;;;;;5112896;28;20076;-68
2021/12/10 07:26:33;;;;;;;16.30;6.88;;;1.80;99.90;;;;;;5112202;28;20047;-69
2021/12/10 07:29:00;;;;;;;11.77;7.05;;;1.70;99.90;;;;;;5112110;28;20028;-69
2021/12/10 07:31:27;;;;;;;11.50;7.05;;;1.70;99.90;;;;;;5112693;28;20030;-69
2021/12/10 07:33:54;;;;;;;11.77;7.15;;;1.70;99.90;;;;;;5112687;28;20081;-69
2021/12/10 07:36:21;;;;;;;11.70;6.55;;;1.70;99.90;;;;;;5112954;28;20016;-69
2021/12/10 07:38:47;;;;;;;14.50;7.30;;;1.70;99.90;;;;;;5078608;28;20067;-69
2021/12/10 07:41:13;;;;;;;12.18;7.30;;;1.70;99.90;;;;;;5113264;28;20077;-67
2021/12/10 07:43:39;;;;;;;14.27;7.10;;;1.60;99.90;;;;;;5113313;28;20020;-69
2021/12/10 07:46:05;;;;;;;18.17;7.65;;;1.70;99.90;;;;;;5108559;28;20586;-68
2021/12/10 07:48:34;;;;;;;15.32;7.28;;;1.70;99.90;;;;;;5105552;28;20032;-68
2021/12/10 07:51:06;;;;;;;12.93;6.97;;;1.80;99.90;;;;;;5087517;28;20487;-68
2021/12/10 07:53:33;;;;;;;11.30;6.93;;;1.80;99.90;;;;;;5111370;28;20493;-69
2021/12/10 07:56:01;;;;;;;16.08;7.50;;;1.90;99.90;;;;;;5100622;28;20039;-69
2021/12/10 07:58:28;;;;;;;14.65;6.97;;;1.90;99.90;;;;;;5110341;28;20158;-69
2021/12/10 08:00:54;;;;;;;15.75;6.57;;;2.00;99.90;;;;;;5099299;28;20089;-69
2021/12/10 08:03:20;;;;;;;13.35;6.10;;;2.40;99.90;;;;;;5103893;28;20020;-69
2021/12/10 08:05:47;;;;;;;14.02;5.95;;;2.90;99.90;;;;;;5092032;28;20153;-69
2021/12/10 08:08:13;;;;;;;11.75;6.38;;;3.00;99.90;;;;;;5098216;28;20102;-69
2021/12/10 08:10:41;;;;;;;9.90;5.68;;;3.30;99.90;;;;;;5108229;28;20032;-68
2021/12/10 08:13:08;;;;;;;9.25;5.75;;;3.60;99.90;;;;;;5058567;28;20426;-69
2021/12/10 08:15:34;;;;;;;10.52;5.53;;;4.10;99.90;;;;;;5093289;28;20479;-73
2021/12/10 08:18:00;;;;;;;9.45;5.43;;;4.70;99.90;;;;;;5103791;28;20053;-74
2021/12/10 08:20:27;;;;;;;11.35;5.63;;;4.90;99.90;;;;;;5083180;28;20400;-73
2021/12/10 08:22:54;;;;;;;12.10;6.00;;;4.70;99.90;;;;;;5110852;28;20012;-73
2021/12/10 08:25:21;;;;;;;9.32;5.05;;;4.70;99.90;;;;;;5097887;28;20040;-73
2021/12/10 08:27:48;;;;;;;11.38;5.93;;;4.60;99.90;;;;;;5115867;28;20040;-73
2021/12/10 08:30:16;;;;;;;13.00;5.85;;;4.60;99.90;;;;;;5115168;28;20456;-74
2021/12/10 08:32:42;;;;;;;10.75;5.65;;;4.70;99.90;;;;;;5114236;28;20024;-73
2021/12/10 08:35:12;;;;;;;8.77;5.05;;;4.90;99.90;;;;;;5115865;28;20019;-73
2021/12/10 08:37:39;;;;;;;9.57;5.30;;;4.90;99.90;;;;;;5102334;28;20475;-74
2021/12/10 08:40:10;;;;;;;13.25;4.97;;;4.90;99.90;;;;;;5082698;28;20438;-73
2021/12/10 08:42:36;;;;;;;9.80;4.80;;;5.10;99.90;;;;;;5101838;28;20024;-74
2021/12/10 08:45:03;;;;;;;12.10;4.65;;;5.40;99.90;;;;;;5097149;28;20419;-74
2021/12/10 08:47:28;;;;;;;10.85;4.60;;;5.50;99.90;;;;;;5098677;28;20040;-74
2021/12/10 08:49:54;;;;;;;8.38;4.63;;;6.10;99.90;;;;;;5098131;28;20124;-74
2021/12/10 08:52:20;;;;;;;10.70;4.80;;;6.30;99.90;;;;;;5095259;28;20024;-73
2021/12/10 08:54:45;;;;;;;7.63;4.22;;;6.90;99.90;;;;;;5097136;28;20035;-74
2021/12/10 08:57:12;;;;;;;10.13;4.15;;;7.60;99.90;;;;;;5115544;28;20027;-73
2021/12/10 08:59:38;;;;;;;14.25;4.78;;;8.00;99.90;;;;;;5116957;28;20045;-74
2021/12/10 09:02:08;;;;;;;10.73;4.32;;;8.10;99.90;;;;;;5116540;28;20024;-74
2021/12/10 09:04:35;;;;;;;9.55;3.95;;;8.80;99.90;;;;;;5098962;28;20032;-74
2021/12/10 09:07:06;;;;;;;9.63;4.47;;;8.50;99.90;;;;;;5115179;28;20464;-74
2021/12/10 09:09:34;;;;;;;6.88;4.57;;;8.70;99.90;;;;;;5107722;28;20020;-74
2021/12/10 09:12:03;;;;;;;7.93;4.25;;;9.10;99.90;;;;;;5109601;28;20055;-74
2021/12/10 09:14:36;;;;;;;8.27;3.90;;;9.00;99.90;;;;;;5106609;28;20024;-74
2021/12/10 09:17:03;;;;;;;17.02;4.45;;;8.70;99.90;;;;;;5098624;28;20489;-74
2021/12/10 09:19:30;;;;;;;8.82;4.22;;;9.20;99.90;;;;;;5101435;28;20027;-73
2021/12/10 09:21:56;;;;;;;8.10;3.53;;;9.30;99.90;;;;;;5114978;28;20016;-74
2021/12/10 09:24:23;;;;;;;8.40;4.15;;;9.50;99.90;;;;;;5106405;28;20111;-75
2021/12/10 09:26:55;;;;;;;7.05;4.22;;;10.20;99.90;;;;;;5100203;28;20020;-74
2021/12/10 09:29:21;;;;;;;5.78;3.40;;;10.30;99.90;;;;;;5115058;28;20023;-75
2021/12/10 09:31:47;;;;;;;10.52;4.13;;;10.90;99.90;;;;;;5113800;28;20026;-74
2021/12/10 09:34:14;;;;;;;9.30;3.42;;;10.60;99.90;;;;;;5115352;28;20024;-74
2021/12/10 09:36:41;;;;;;;7.35;3.38;;;10.70;99.90;;;;;;5110075;28;20025;-74
2021/12/10 09:39:08;;;;;;;13.70;5.95;;;10.60;99.90;;;;;;5095247;28;20511;-74
2021/12/10 09:41:35;;;;;;;6.43;3.33;;;10.70;99.90;;;;;;5112363;28;20024;-74
2021/12/10 09:44:00;;;;;;;7.78;3.22;;;10.70;99.90;;;;;;5093845;28;20389;-75
2021/12/10 09:46:26;;;;;;;8.65;4.13;;;10.00;99.90;;;;;;5078272;28;20027;-75
2021/12/10 09:48:52;;;;;;;8.32;3.75;;;10.10;99.90;;;;;;5101847;28;20051;-74
2021/12/10 09:51:25;;;;;;;8.40;3.45;;;10.40;99.90;;;;;;5091674;28;20076;-74
2021/12/10 09:53:54;;;;;;;8.88;3.97;;;10.70;99.90;;;;;;5095840;28;20051;-75
2021/12/10 09:56:21;;;;;;;9.82;4.90;;;10.50;99.90;;;;;;5094636;28;20028;-74
2021/12/10 09:58:47;;;;;;;11.48;4.03;;;10.20;99.90;;;;;;5089156;28;20081;-74
2021/12/10 10:01:19;;;;;;;11.07;5.32;;;10.70;99.90;;;;;;5114174;28;20514;-76
2021/12/10 10:03:47;;;;;;;7.78;4.03;;;10.70;99.90;;;;;;5098242;28;20019;-76
2021/12/10 10:06:14;;;;;;;10.07;4.32;;;10.40;99.90;;;;;;5114101;28;20049;-74
2021/12/10 10:08:40;;;;;;;10.18;4.60;;;10.00;99.90;;;;;;5114063;28;20432;-75
2021/12/10 10:11:17;;;;;;;6.30;3.20;;;10.00;99.90;;;;;;5115881;28;20041;-76
2021/12/10 10:13:47;;;;;;;9.77;4.55;;;10.10;99.90;;;;;;5081272;28;20376;-75
2021/12/10 10:16:14;;;;;;;9.88;4.88;;;10.20;99.90;;;;;;5114381;28;20426;-74
2021/12/10 10:18:42;;;;;;;9.45;3.60;;;9.80;99.90;;;;;;5113867;28;20380;-74
2021/12/10 10:21:12;;;;;;;9.90;4.15;;;10.00;99.90;;;;;;5115620;28;20027;-74
2021/12/10 10:23:41;;;;;;;11.52;4.13;;;10.60;99.90;;;;;;5097118;28;20407;-74
2021/12/10 10:26:12;;;;;;;8.45;4.55;;;10.70;99.90;;;;;;5115577;28;20011;-74
2021/12/10 10:28:37;;;;;;;9.80;4.22;;;10.40;99.90;;;;;;5096633;28;20043;-74
2021/12/10 10:31:09;;;;;;;5.82;3.22;;;10.90;99.90;;;;;;5113584;28;20028;-74
2021/12/10 10:33:37;;;;;;;7.32;3.80;;;10.70;99.90;;;;;;5096727;28;20027;-74
2021/12/10 10:36:08;;;;;;;10.07;4.05;;;10.60;99.90;;;;;;5113551;28;20055;-73
2021/12/10 10:38:34;;;;;;;9.52;4.05;;;11.00;99.90;;;;;;5114275;28;20082;-72
2021/12/10 10:41:08;;;;;;;11.02;3.90;;;10.30;99.90;;;;;;5096642;28;20016;-72
2021/12/10 10:43:34;;;;;;;12.93;6.90;;;10.80;99.90;;;;;;5113086;28;20016;-72
2021/12/10 10:46:00;;;;;;;14.85;6.22;;;10.40;99.90;;;;;;5114797;28;20027;-71
2021/12/10 10:48:28;;;;;;;9.85;5.03;;;10.40;99.90;;;;;;5114819;28;20035;-71
2021/12/10 10:51:01;;;;;;;12.52;5.30;;;10.20;99.90;;;;;;5114468;28;20092;-71
2021/12/10 10:53:30;;;;;;;9.63;3.40;;;10.40;99.90;;;;;;5114919;28;20103;-72
2021/12/10 10:56:08;;;;;;;10.10;4.13;;;10.30;99.90;;;;;;5113404;28;20028;-72
2021/12/10 10:58:37;;;;;;;7.68;3.20;;;10.10;99.90;;;;;;5095971;28;20034;-71
2021/12/10 11:01:20;;;;;;;9.18;4.20;;;10.30;99.90;;;;;;5112986;28;20023;-72
2021/12/10 11:04:13;;;;;;;10.23;4.07;;;11.00;99.90;;;;;;5105831;28;20016;-72
2021/12/10 11:06:43;;;;;;;8.00;3.30;;;10.80;99.90;;;;;;5093477;28;20111;-72
2021/12/10 11:09:14;;;;;;;10.27;3.08;;;10.40;99.90;;;;;;5108176;28;20435;-71
2021/12/10 11:11:48;;;;;;;8.40;2.33;;;10.30;99.90;;;;;;5094896;28;20056;-72
2021/12/10 11:14:33;;;;;;;10.25;2.97;;;9.60;99.90;;;;;;5094380;28;20034;-72
2021/12/10 11:17:14;;;;;;;8.35;2.53;;;8.70;99.90;;;;;;5093710;28;20362;-72
2021/12/10 11:19:41;;;;;;;8.10;2.90;;;8.10;99.90;;;;;;5075842;28;20389;-72
2021/12/10 11:22:12;;;;;;;7.43;2.72;;;7.80;99.90;;;;;;5075586;28;20541;-72
2021/12/10 11:24:46;;;;;;;8.95;2.67;;;7.40;99.90;;;;;;5092625;28;20016;-72
2021/12/10 11:27:33;;;;;;;9.73;2.00;;;7.10;99.90;;;;;;5093596;28;20016;-72
2021/12/10 11:32:54;;;;;;;8.63;2.65;;;7.10;99.90;;;;;;5102432;27;1187925;-71
2021/12/10 11:35:23;;;;;;;9.40;2.28;;;7.10;99.90;;;;;;5130191;28;20443;-71
2021/12/10 11:38:11;;;;;;;9.65;2.05;;;6.80;99.90;;;;;;5130227;27;20019;-71
2021/12/10 11:41:13;;;;;;;9.13;2.10;;;6.80;99.90;;;;;;5131611;27;20035;-71
2021/12/10 11:49:27;;;;;;;5.93;2.35;;;6.70;99.90;;;;;;5109685;28;20448;-72
2021/12/10 11:54:38;;;;;;;6.90;2.05;;;6.90;99.90;;;;;;5111206;27;20291;-72
2021/12/10 11:57:26;;;;;;;12.85;4.63;;;6.50;99.90;;;;;;5111771;28;20055;-72
2021/12/10 12:00:00;;;;;;;11.82;4.22;;;6.40;99.90;;;;;;5109976;28;20024;-72
2021/12/10 12:02:32;;;;;;;11.95;4.82;;;6.40;99.90;;;;;;5109715;28;20028;-72
2021/12/10 12:05:02;;;;;;;8.85;2.30;;;6.50;99.90;;;;;;5111642;28;20032;-72
2021/12/10 12:07:39;;;;;;;7.00;2.80;;;6.50;99.90;;;;;;5110610;28;20035;-72
2021/12/10 12:12:51;;;;;;;8.65;2.60;;;6.40;99.90;;;;;;5071434;28;20357;-72
2021/12/10 12:15:29;;;;;;;8.18;2.00;;;6.50;99.90;;;;;;5071002;28;20386;-72
2021/12/10 12:18:16;;;;;;;9.35;2.80;;;6.30;99.90;;;;;;5071213;28;20013;-72
2021/12/10 12:20:49;;;;;;;7.97;1.90;;;6.30;99.90;;;;;;5070844;28;20028;-71
2021/12/10 12:26:13;;;;;;;6.18;1.52;;;6.20;99.90;;;;;;5070388;28;20040;-68
2021/12/10 12:28:49;;;;;;;5.00;1.67;;;6.10;99.90;;;;;;5070421;28;20112;-69
2021/12/10 12:31:19;;;;;;;6.82;1.77;;;6.00;99.90;;;;;;5070357;28;20047;-69
2021/12/10 12:33:57;;;;;;;11.10;2.45;;;6.10;99.90;;;;;;5074526;28;20473;-68
2021/12/10 12:36:29;;;;;;;11.23;2.38;;;6.10;99.90;;;;;;5074614;28;20035;-68
2021/12/10 12:38:55;;;;;;;9.77;2.20;;;6.10;99.90;;;;;;5077791;28;20097;-69
2021/12/10 12:41:27;;;;;;;7.68;1.60;;;6.10;99.90;;;;;;5068989;28;20029;-69
2021/12/10 12:44:19;;;;;;;5.95;1.92;;;6.00;99.90;;;;;;5081065;28;20037;-68
2021/12/10 12:47:21;;;;;;;7.57;1.60;;;6.00;99.90;;;;;;5068778;28;20103;-69
2021/12/10 12:49:52;;;;;;;7.57;2.10;;;6.00;99.90;;;;;;5083345;28;20020;-69
2021/12/10 12:55:22;;;;;;;10.25;1.90;;;6.00;99.90;;;;;;5111209;27;20766;-68
2021/12/10 12:58:06;;;;;;;8.80;1.88;;;5.90;99.90;;;;;;5092370;28;20037;-68
2021/12/10 13:00:57;;;;;;;5.45;1.60;;;6.00;99.90;;;;;;5111466;28;20349;-68
2021/12/10 13:03:52;;;;;;;8.63;2.08;;;6.00;99.90;;;;;;5108733;28;20032;-68
2021/12/10 13:06:24;;;;;;;5.93;1.92;;;6.00;99.90;;;;;;5110635;28;20110;-68
2021/12/10 13:12:06;;;;;;;5.85;1.70;;;5.90;99.90;;;;;;5112134;27;20384;-68
2021/12/10 13:14:47;;;;;;;8.45;1.80;;;5.90;99.90;;;;;;5091476;28;20021;-68
2021/12/10 13:17:20;;;;;;;4.65;1.95;;;5.90;99.90;;;;;;5091118;28;20091;-68
2021/12/10 13:19:46;;;;;;;7.10;2.42;;;5.90;99.90;;;;;;5074629;28;20024;-68
2021/12/10 13:22:16;;;;;;;8.52;2.15;;;5.90;99.90;;;;;;5117303;28;20034;-68
2021/12/10 13:24:45;;;;;;;4.57;1.85;;;5.90;99.90;;;;;;5117539;28;20126;-68
2021/12/10 13:27:12;;;;;;;13.65;2.20;;;5.80;99.90;;;;;;5130786;28;20035;-68